sensor_id;sensor_type;location;lat;lon;timestamp;P1;durP1;ratioP1;P2;durP2;ratioP2
24547;SDS011;12713;51.624;4.924;2023-04-09T00:01:23;29.50;;;22.75;;
24547;SDS011;12713;51.624;4.924;2023-04-09T00:03:49;33.85;;;23.25;;
24547;SDS011;12713;51.624;4.924;2023-04-09T00:06:15;28.98;;;22.27;;
24547;SDS011;12713;51.624;4.924;2023-04-09T00:08:41;31.88;;;23.33;;
24547;SDS011;12713;51.624;4.924;2023-04-09T00:11:07;29.75;;;22.88;;
24547;SDS011;12713;51.624;4.924;2023-04-09T00:13:33;25.77;;;20.33;;
24547;SDS011;12713;51.624;4.924;2023-04-09T00:16:00;31.60;;;23.13;;
24547;SDS011;12713;51.624;4.924;2023-04-09T00:18:26;33.03;;;23.73;;
24547;SDS011;12713;51.624;4.924;2023-04-09T00:20:52;30.80;;;23.10;;
24547;SDS011;12713;51.624;4.924;2023-04-09T00:23:18;29.10;;;23.38;;
24547;SDS011;12713;51.624;4.924;2023-04-09T00:25:44;35.10;;;24.85;;
24547;SDS011;12713;51.624;4.924;2023-04-09T00:28:10;32.10;;;24.23;;
24547;SDS011;12713;51.624;4.924;2023-04-09T00:30:36;30.98;;;23.70;;
24547;SDS011;12713;51.624;4.924;2023-04-09T00:33:02;31.58;;;23.88;;
24547;SDS011;12713;51.624;4.924;2023-04-09T00:35:28;28.40;;;21.77;;
24547;SDS011;12713;51.624;4.924;2023-04-09T00:37:55;26.98;;;21.05;;
24547;SDS011;12713;51.624;4.924;2023-04-09T00:40:21;30.08;;;22.33;;
24547;SDS011;12713;51.624;4.924;2023-04-09T00:42:47;30.55;;;22.77;;
24547;SDS011;12713;51.624;4.924;2023-04-09T00:45:13;30.48;;;22.88;;
24547;SDS011;12713;51.624;4.924;2023-04-09T00:47:39;30.77;;;24.15;;
24547;SDS011;12713;51.624;4.924;2023-04-09T00:50:07;32.22;;;23.67;;
24547;SDS011;12713;51.624;4.924;2023-04-09T00:52:33;29.83;;;23.25;;
24547;SDS011;12713;51.624;4.924;2023-04-09T00:55:00;33.22;;;23.88;;
24547;SDS011;12713;51.624;4.924;2023-04-09T00:57:26;32.13;;;22.98;;
24547;SDS011;12713;51.624;4.924;2023-04-09T00:59:52;33.33;;;24.05;;
24547;SDS011;12713;51.624;4.924;2023-04-09T01:02:19;33.67;;;25.42;;
24547;SDS011;12713;51.624;4.924;2023-04-09T01:04:45;29.20;;;22.25;;
24547;SDS011;12713;51.624;4.924;2023-04-09T01:07:19;28.60;;;23.13;;
24547;SDS011;12713;51.624;4.924;2023-04-09T01:10:08;31.92;;;23.70;;
24547;SDS011;12713;51.624;4.924;2023-04-09T01:12:46;29.30;;;23.70;;
24547;SDS011;12713;51.624;4.924;2023-04-09T01:15:20;34.45;;;25.05;;
24547;SDS011;12713;51.624;4.924;2023-04-09T01:17:57;28.45;;;23.33;;
24547;SDS011;12713;51.624;4.924;2023-04-09T01:20:34;36.05;;;25.58;;
24547;SDS011;12713;51.624;4.924;2023-04-09T01:23:09;33.45;;;24.55;;
24547;SDS011;12713;51.624;4.924;2023-04-09T01:25:40;29.35;;;22.77;;
24547;SDS011;12713;51.624;4.924;2023-04-09T01:30:35;31.88;;;24.65;;
24547;SDS011;12713;51.624;4.924;2023-04-09T01:33:01;37.33;;;26.35;;
24547;SDS011;12713;51.624;4.924;2023-04-09T01:35:28;36.38;;;26.60;;
24547;SDS011;12713;51.624;4.924;2023-04-09T01:37:54;37.75;;;28.23;;
24547;SDS011;12713;51.624;4.924;2023-04-09T01:40:21;33.55;;;24.05;;
24547;SDS011;12713;51.624;4.924;2023-04-09T01:42:47;37.08;;;26.52;;
24547;SDS011;12713;51.624;4.924;2023-04-09T01:45:14;58.45;;;39.33;;
24547;SDS011;12713;51.624;4.924;2023-04-09T01:47:41;60.97;;;40.65;;
24547;SDS011;12713;51.624;4.924;2023-04-09T01:50:07;60.67;;;39.92;;
24547;SDS011;12713;51.624;4.924;2023-04-09T01:52:33;54.65;;;36.80;;
24547;SDS011;12713;51.624;4.924;2023-04-09T01:55:00;50.33;;;32.70;;
24547;SDS011;12713;51.624;4.924;2023-04-09T01:57:26;59.90;;;37.42;;
24547;SDS011;12713;51.624;4.924;2023-04-09T01:59:52;59.67;;;40.25;;
24547;SDS011;12713;51.624;4.924;2023-04-09T02:02:32;60.25;;;39.45;;
24547;SDS011;12713;51.624;4.924;2023-04-09T02:05:00;60.17;;;39.22;;
24547;SDS011;12713;51.624;4.924;2023-04-09T02:09:54;38.25;;;27.08;;
24547;SDS011;12713;51.624;4.924;2023-04-09T02:12:21;54.80;;;36.28;;
24547;SDS011;12713;51.624;4.924;2023-04-09T02:14:50;48.97;;;32.28;;
24547;SDS011;12713;51.624;4.924;2023-04-09T02:17:16;45.17;;;31.38;;
24547;SDS011;12713;51.624;4.924;2023-04-09T02:19:43;55.92;;;36.65;;
24547;SDS011;12713;51.624;4.924;2023-04-09T02:22:09;46.08;;;31.55;;
24547;SDS011;12713;51.624;4.924;2023-04-09T02:24:36;57.22;;;37.53;;
24547;SDS011;12713;51.624;4.924;2023-04-09T02:27:02;51.13;;;33.47;;
24547;SDS011;12713;51.624;4.924;2023-04-09T02:29:29;52.15;;;33.75;;
24547;SDS011;12713;51.624;4.924;2023-04-09T02:31:55;55.83;;;36.05;;
24547;SDS011;12713;51.624;4.924;2023-04-09T02:34:21;53.13;;;34.80;;
24547;SDS011;12713;51.624;4.924;2023-04-09T02:36:47;48.97;;;31.45;;
24547;SDS011;12713;51.624;4.924;2023-04-09T02:39:13;46.05;;;30.65;;
24547;SDS011;12713;51.624;4.924;2023-04-09T02:41:40;41.70;;;30.10;;
24547;SDS011;12713;51.624;4.924;2023-04-09T02:44:06;43.25;;;30.63;;
24547;SDS011;12713;51.624;4.924;2023-04-09T02:46:32;46.80;;;33.47;;
24547;SDS011;12713;51.624;4.924;2023-04-09T02:48:58;42.05;;;30.48;;
24547;SDS011;12713;51.624;4.924;2023-04-09T02:51:24;43.60;;;30.55;;
24547;SDS011;12713;51.624;4.924;2023-04-09T02:53:51;41.13;;;30.63;;
24547;SDS011;12713;51.624;4.924;2023-04-09T02:56:17;37.15;;;27.65;;
24547;SDS011;12713;51.624;4.924;2023-04-09T02:58:43;45.78;;;31.75;;
24547;SDS011;12713;51.624;4.924;2023-04-09T03:01:09;42.63;;;31.13;;
24547;SDS011;12713;51.624;4.924;2023-04-09T03:03:35;43.53;;;30.35;;
24547;SDS011;12713;51.624;4.924;2023-04-09T03:06:03;40.75;;;28.10;;
24547;SDS011;12713;51.624;4.924;2023-04-09T03:08:29;43.75;;;30.20;;
24547;SDS011;12713;51.624;4.924;2023-04-09T03:10:55;40.38;;;29.33;;
24547;SDS011;12713;51.624;4.924;2023-04-09T03:13:21;38.85;;;27.88;;
24547;SDS011;12713;51.624;4.924;2023-04-09T03:15:51;40.95;;;29.67;;
24547;SDS011;12713;51.624;4.924;2023-04-09T03:18:17;40.00;;;29.73;;
24547;SDS011;12713;51.624;4.924;2023-04-09T03:20:43;39.67;;;26.58;;
24547;SDS011;12713;51.624;4.924;2023-04-09T03:23:09;42.10;;;29.77;;
24547;SDS011;12713;51.624;4.924;2023-04-09T03:25:35;41.85;;;30.45;;
24547;SDS011;12713;51.624;4.924;2023-04-09T03:28:02;40.75;;;29.58;;
24547;SDS011;12713;51.624;4.924;2023-04-09T03:30:28;42.00;;;30.10;;
24547;SDS011;12713;51.624;4.924;2023-04-09T03:32:54;45.70;;;30.95;;
24547;SDS011;12713;51.624;4.924;2023-04-09T03:35:20;44.83;;;30.27;;
24547;SDS011;12713;51.624;4.924;2023-04-09T03:37:46;45.97;;;31.02;;
24547;SDS011;12713;51.624;4.924;2023-04-09T03:40:12;43.92;;;30.42;;
24547;SDS011;12713;51.624;4.924;2023-04-09T03:42:41;41.22;;;28.73;;
24547;SDS011;12713;51.624;4.924;2023-04-09T03:45:07;38.78;;;28.67;;
24547;SDS011;12713;51.624;4.924;2023-04-09T03:47:33;45.35;;;30.73;;
24547;SDS011;12713;51.624;4.924;2023-04-09T03:49:59;40.40;;;29.73;;
24547;SDS011;12713;51.624;4.924;2023-04-09T03:52:25;43.67;;;30.13;;
24547;SDS011;12713;51.624;4.924;2023-04-09T03:54:51;46.30;;;31.92;;
24547;SDS011;12713;51.624;4.924;2023-04-09T03:57:17;44.80;;;30.80;;
24547;SDS011;12713;51.624;4.924;2023-04-09T03:59:43;42.97;;;30.65;;
24547;SDS011;12713;51.624;4.924;2023-04-09T04:02:10;35.60;;;25.10;;
24547;SDS011;12713;51.624;4.924;2023-04-09T04:04:36;43.13;;;28.42;;
24547;SDS011;12713;51.624;4.924;2023-04-09T04:07:02;41.38;;;28.48;;
24547;SDS011;12713;51.624;4.924;2023-04-09T04:09:28;37.80;;;27.52;;
24547;SDS011;12713;51.624;4.924;2023-04-09T04:11:54;41.67;;;27.92;;
24547;SDS011;12713;51.624;4.924;2023-04-09T04:14:22;45.42;;;31.42;;
24547;SDS011;12713;51.624;4.924;2023-04-09T04:16:48;43.70;;;29.10;;
24547;SDS011;12713;51.624;4.924;2023-04-09T04:19:15;46.10;;;31.13;;
24547;SDS011;12713;51.624;4.924;2023-04-09T04:21:41;41.05;;;28.40;;
24547;SDS011;12713;51.624;4.924;2023-04-09T04:24:07;55.28;;;31.73;;
24547;SDS011;12713;51.624;4.924;2023-04-09T04:26:33;44.95;;;31.63;;
24547;SDS011;12713;51.624;4.924;2023-04-09T04:28:59;46.03;;;32.10;;
24547;SDS011;12713;51.624;4.924;2023-04-09T04:31:25;49.60;;;31.95;;
24547;SDS011;12713;51.624;4.924;2023-04-09T04:33:51;47.95;;;32.15;;
24547;SDS011;12713;51.624;4.924;2023-04-09T04:36:17;45.83;;;30.70;;
24547;SDS011;12713;51.624;4.924;2023-04-09T04:38:43;43.30;;;29.75;;
24547;SDS011;12713;51.624;4.924;2023-04-09T04:41:09;40.40;;;26.92;;
24547;SDS011;12713;51.624;4.924;2023-04-09T04:43:36;51.92;;;32.97;;
24547;SDS011;12713;51.624;4.924;2023-04-09T04:46:02;40.70;;;27.95;;
24547;SDS011;12713;51.624;4.924;2023-04-09T04:48:28;48.90;;;32.10;;
24547;SDS011;12713;51.624;4.924;2023-04-09T04:50:59;50.65;;;32.97;;
24547;SDS011;12713;51.624;4.924;2023-04-09T04:53:25;54.85;;;34.53;;
24547;SDS011;12713;51.624;4.924;2023-04-09T04:55:51;46.45;;;31.05;;
24547;SDS011;12713;51.624;4.924;2023-04-09T04:58:17;50.67;;;31.35;;
24547;SDS011;12713;51.624;4.924;2023-04-09T05:00:44;46.83;;;30.00;;
24547;SDS011;12713;51.624;4.924;2023-04-09T05:03:10;59.25;;;36.35;;
24547;SDS011;12713;51.624;4.924;2023-04-09T05:05:36;56.58;;;35.83;;
24547;SDS011;12713;51.624;4.924;2023-04-09T05:08:02;54.55;;;33.03;;
24547;SDS011;12713;51.624;4.924;2023-04-09T05:10:28;56.80;;;34.40;;
24547;SDS011;12713;51.624;4.924;2023-04-09T05:12:54;59.65;;;33.85;;
24547;SDS011;12713;51.624;4.924;2023-04-09T05:15:21;61.92;;;36.20;;
24547;SDS011;12713;51.624;4.924;2023-04-09T05:17:47;56.45;;;33.35;;
24547;SDS011;12713;51.624;4.924;2023-04-09T05:20:13;63.70;;;36.28;;
24547;SDS011;12713;51.624;4.924;2023-04-09T05:22:39;60.88;;;33.55;;
24547;SDS011;12713;51.624;4.924;2023-04-09T05:25:05;62.97;;;36.05;;
24547;SDS011;12713;51.624;4.924;2023-04-09T05:27:32;62.38;;;38.30;;
24547;SDS011;12713;51.624;4.924;2023-04-09T05:29:58;61.72;;;35.15;;
24547;SDS011;12713;51.624;4.924;2023-04-09T05:32:24;70.13;;;40.13;;
24547;SDS011;12713;51.624;4.924;2023-04-09T05:34:50;69.00;;;40.28;;
24547;SDS011;12713;51.624;4.924;2023-04-09T05:37:16;68.78;;;40.17;;
24547;SDS011;12713;51.624;4.924;2023-04-09T05:39:42;64.40;;;36.47;;
24547;SDS011;12713;51.624;4.924;2023-04-09T05:42:08;72.88;;;42.22;;
24547;SDS011;12713;51.624;4.924;2023-04-09T05:44:34;70.68;;;40.00;;
24547;SDS011;12713;51.624;4.924;2023-04-09T05:47:00;72.38;;;41.72;;
24547;SDS011;12713;51.624;4.924;2023-04-09T05:49:27;70.85;;;41.90;;
24547;SDS011;12713;51.624;4.924;2023-04-09T05:51:53;73.80;;;41.55;;
24547;SDS011;12713;51.624;4.924;2023-04-09T05:54:19;69.55;;;41.17;;
24547;SDS011;12713;51.624;4.924;2023-04-09T05:56:45;72.80;;;40.55;;
24547;SDS011;12713;51.624;4.924;2023-04-09T05:59:12;76.97;;;42.67;;
24547;SDS011;12713;51.624;4.924;2023-04-09T06:01:38;71.80;;;42.45;;
24547;SDS011;12713;51.624;4.924;2023-04-09T06:04:04;63.22;;;37.20;;
24547;SDS011;12713;51.624;4.924;2023-04-09T06:06:30;76.07;;;44.13;;
24547;SDS011;12713;51.624;4.924;2023-04-09T06:08:56;74.55;;;44.55;;
24547;SDS011;12713;51.624;4.924;2023-04-09T06:11:22;68.93;;;43.13;;
24547;SDS011;12713;51.624;4.924;2023-04-09T06:13:48;71.72;;;43.67;;
24547;SDS011;12713;51.624;4.924;2023-04-09T06:16:14;71.82;;;41.53;;
24547;SDS011;12713;51.624;4.924;2023-04-09T06:18:40;66.30;;;41.88;;
24547;SDS011;12713;51.624;4.924;2023-04-09T06:21:07;67.97;;;41.90;;
24547;SDS011;12713;51.624;4.924;2023-04-09T06:23:34;70.13;;;42.75;;
24547;SDS011;12713;51.624;4.924;2023-04-09T06:26:00;69.35;;;41.60;;
24547;SDS011;12713;51.624;4.924;2023-04-09T06:28:29;70.78;;;42.22;;
24547;SDS011;12713;51.624;4.924;2023-04-09T06:30:56;67.78;;;40.53;;
24547;SDS011;12713;51.624;4.924;2023-04-09T06:33:22;67.45;;;40.67;;
24547;SDS011;12713;51.624;4.924;2023-04-09T06:35:48;71.30;;;43.28;;
24547;SDS011;12713;51.624;4.924;2023-04-09T06:38:14;66.45;;;38.95;;
24547;SDS011;12713;51.624;4.924;2023-04-09T06:40:41;68.15;;;41.95;;
24547;SDS011;12713;51.624;4.924;2023-04-09T06:43:07;68.15;;;40.75;;
24547;SDS011;12713;51.624;4.924;2023-04-09T06:45:33;68.80;;;41.13;;
24547;SDS011;12713;51.624;4.924;2023-04-09T06:48:00;66.25;;;40.67;;
24547;SDS011;12713;51.624;4.924;2023-04-09T06:50:26;65.30;;;40.15;;
24547;SDS011;12713;51.624;4.924;2023-04-09T06:52:52;60.83;;;38.97;;
24547;SDS011;12713;51.624;4.924;2023-04-09T06:55:18;64.70;;;39.08;;
24547;SDS011;12713;51.624;4.924;2023-04-09T06:57:45;69.68;;;40.75;;
24547;SDS011;12713;51.624;4.924;2023-04-09T07:00:11;61.30;;;40.25;;
24547;SDS011;12713;51.624;4.924;2023-04-09T07:02:37;61.45;;;37.90;;
24547;SDS011;12713;51.624;4.924;2023-04-09T07:05:03;62.72;;;39.20;;
24547;SDS011;12713;51.624;4.924;2023-04-09T07:07:29;66.97;;;40.65;;
24547;SDS011;12713;51.624;4.924;2023-04-09T07:09:55;62.75;;;40.20;;
24547;SDS011;12713;51.624;4.924;2023-04-09T07:12:28;60.85;;;38.17;;
24547;SDS011;12713;51.624;4.924;2023-04-09T07:14:58;60.50;;;38.47;;
24547;SDS011;12713;51.624;4.924;2023-04-09T07:17:24;59.35;;;37.53;;
24547;SDS011;12713;51.624;4.924;2023-04-09T07:19:50;59.97;;;37.55;;
24547;SDS011;12713;51.624;4.924;2023-04-09T07:22:18;53.83;;;35.60;;
24547;SDS011;12713;51.624;4.924;2023-04-09T07:24:46;56.22;;;35.20;;
24547;SDS011;12713;51.624;4.924;2023-04-09T07:27:17;55.70;;;35.20;;
24547;SDS011;12713;51.624;4.924;2023-04-09T07:29:44;55.33;;;35.17;;
24547;SDS011;12713;51.624;4.924;2023-04-09T07:32:10;53.65;;;34.42;;
24547;SDS011;12713;51.624;4.924;2023-04-09T07:34:37;52.25;;;35.17;;
24547;SDS011;12713;51.624;4.924;2023-04-09T07:37:03;51.90;;;33.75;;
24547;SDS011;12713;51.624;4.924;2023-04-09T07:39:29;53.60;;;35.15;;
24547;SDS011;12713;51.624;4.924;2023-04-09T07:41:55;51.80;;;34.38;;
24547;SDS011;12713;51.624;4.924;2023-04-09T07:44:21;54.65;;;34.83;;
24547;SDS011;12713;51.624;4.924;2023-04-09T07:46:48;53.15;;;34.90;;
24547;SDS011;12713;51.624;4.924;2023-04-09T07:49:14;56.85;;;35.90;;
24547;SDS011;12713;51.624;4.924;2023-04-09T07:51:41;50.15;;;33.40;;
24547;SDS011;12713;51.624;4.924;2023-04-09T07:54:07;51.63;;;34.13;;
24547;SDS011;12713;51.624;4.924;2023-04-09T07:56:33;51.38;;;33.17;;
24547;SDS011;12713;51.624;4.924;2023-04-09T07:58:59;52.00;;;34.08;;
24547;SDS011;12713;51.624;4.924;2023-04-09T08:01:26;49.67;;;32.80;;
24547;SDS011;12713;51.624;4.924;2023-04-09T08:03:52;49.17;;;33.60;;
24547;SDS011;12713;51.624;4.924;2023-04-09T08:06:18;49.85;;;33.15;;
24547;SDS011;12713;51.624;4.924;2023-04-09T08:08:44;48.95;;;32.72;;
24547;SDS011;12713;51.624;4.924;2023-04-09T08:11:10;51.53;;;33.47;;
24547;SDS011;12713;51.624;4.924;2023-04-09T08:13:36;51.78;;;34.05;;
24547;SDS011;12713;51.624;4.924;2023-04-09T08:16:03;51.50;;;33.30;;
24547;SDS011;12713;51.624;4.924;2023-04-09T08:18:29;51.25;;;33.50;;
24547;SDS011;12713;51.624;4.924;2023-04-09T08:20:55;49.72;;;32.78;;
24547;SDS011;12713;51.624;4.924;2023-04-09T08:23:22;53.25;;;34.20;;
24547;SDS011;12713;51.624;4.924;2023-04-09T08:25:48;53.38;;;33.33;;
24547;SDS011;12713;51.624;4.924;2023-04-09T08:28:14;49.30;;;32.90;;
24547;SDS011;12713;51.624;4.924;2023-04-09T08:30:40;51.33;;;32.20;;
24547;SDS011;12713;51.624;4.924;2023-04-09T08:33:06;51.00;;;31.85;;
24547;SDS011;12713;51.624;4.924;2023-04-09T08:35:32;50.30;;;33.00;;
24547;SDS011;12713;51.624;4.924;2023-04-09T08:37:58;50.50;;;33.97;;
24547;SDS011;12713;51.624;4.924;2023-04-09T08:40:24;52.38;;;33.42;;
24547;SDS011;12713;51.624;4.924;2023-04-09T08:42:54;50.67;;;31.83;;
24547;SDS011;12713;51.624;4.924;2023-04-09T08:45:21;49.08;;;32.22;;
24547;SDS011;12713;51.624;4.924;2023-04-09T08:47:47;48.85;;;31.20;;
24547;SDS011;12713;51.624;4.924;2023-04-09T08:50:13;50.88;;;31.48;;
24547;SDS011;12713;51.624;4.924;2023-04-09T08:52:40;49.28;;;31.77;;
24547;SDS011;12713;51.624;4.924;2023-04-09T08:55:06;46.30;;;31.10;;
24547;SDS011;12713;51.624;4.924;2023-04-09T08:57:36;43.72;;;31.13;;
24547;SDS011;12713;51.624;4.924;2023-04-09T09:00:02;44.97;;;29.60;;
24547;SDS011;12713;51.624;4.924;2023-04-09T09:02:28;49.30;;;30.85;;
24547;SDS011;12713;51.624;4.924;2023-04-09T09:04:55;45.85;;;30.83;;
24547;SDS011;12713;51.624;4.924;2023-04-09T09:07:28;42.90;;;29.13;;
24547;SDS011;12713;51.624;4.924;2023-04-09T09:09:55;49.47;;;31.23;;
24547;SDS011;12713;51.624;4.924;2023-04-09T09:12:38;51.95;;;32.40;;
24547;SDS011;12713;51.624;4.924;2023-04-09T09:15:10;45.65;;;32.67;;
24547;SDS011;12713;51.624;4.924;2023-04-09T09:17:54;47.25;;;31.65;;
24547;SDS011;12713;51.624;4.924;2023-04-09T09:20:21;43.17;;;29.77;;
24547;SDS011;12713;51.624;4.924;2023-04-09T09:22:51;43.97;;;30.95;;
24547;SDS011;12713;51.624;4.924;2023-04-09T09:25:17;41.53;;;29.25;;
24547;SDS011;12713;51.624;4.924;2023-04-09T09:27:47;45.15;;;32.53;;
24547;SDS011;12713;51.624;4.924;2023-04-09T09:30:20;44.90;;;30.90;;
24547;SDS011;12713;51.624;4.924;2023-04-09T09:32:49;44.78;;;33.08;;
24547;SDS011;12713;51.624;4.924;2023-04-09T09:35:16;43.30;;;30.75;;
24547;SDS011;12713;51.624;4.924;2023-04-09T09:37:42;46.00;;;31.17;;
24547;SDS011;12713;51.624;4.924;2023-04-09T09:40:08;43.90;;;31.52;;
24547;SDS011;12713;51.624;4.924;2023-04-09T09:42:35;40.08;;;30.80;;
24547;SDS011;12713;51.624;4.924;2023-04-09T09:45:01;45.85;;;33.28;;
24547;SDS011;12713;51.624;4.924;2023-04-09T09:47:29;40.22;;;30.77;;
24547;SDS011;12713;51.624;4.924;2023-04-09T09:49:55;41.90;;;31.08;;
24547;SDS011;12713;51.624;4.924;2023-04-09T09:52:23;39.35;;;30.60;;
24547;SDS011;12713;51.624;4.924;2023-04-09T09:54:54;43.05;;;32.08;;
24547;SDS011;12713;51.624;4.924;2023-04-09T09:57:23;40.97;;;30.35;;
24547;SDS011;12713;51.624;4.924;2023-04-09T09:59:50;42.63;;;30.90;;
24547;SDS011;12713;51.624;4.924;2023-04-09T10:02:19;39.88;;;30.40;;
24547;SDS011;12713;51.624;4.924;2023-04-09T10:04:45;47.33;;;31.80;;
24547;SDS011;12713;51.624;4.924;2023-04-09T10:07:13;42.75;;;31.83;;
24547;SDS011;12713;51.624;4.924;2023-04-09T10:09:40;42.33;;;31.35;;
24547;SDS011;12713;51.624;4.924;2023-04-09T10:12:07;40.08;;;30.83;;
24547;SDS011;12713;51.624;4.924;2023-04-09T10:14:35;40.92;;;29.48;;
24547;SDS011;12713;51.624;4.924;2023-04-09T10:17:02;41.38;;;30.60;;
24547;SDS011;12713;51.624;4.924;2023-04-09T10:19:29;41.80;;;31.60;;
24547;SDS011;12713;51.624;4.924;2023-04-09T10:22:07;40.38;;;30.55;;
24547;SDS011;12713;51.624;4.924;2023-04-09T10:24:35;39.80;;;28.88;;
24547;SDS011;12713;51.624;4.924;2023-04-09T10:29:41;37.90;;;29.20;;
24547;SDS011;12713;51.624;4.924;2023-04-09T10:32:09;39.47;;;29.98;;
24547;SDS011;12713;51.624;4.924;2023-04-09T10:34:39;43.30;;;30.48;;
24547;SDS011;12713;51.624;4.924;2023-04-09T10:37:06;41.30;;;30.10;;
24547;SDS011;12713;51.624;4.924;2023-04-09T10:39:36;39.22;;;30.13;;
24547;SDS011;12713;51.624;4.924;2023-04-09T10:42:06;35.35;;;27.23;;
24547;SDS011;12713;51.624;4.924;2023-04-09T10:44:33;33.45;;;26.33;;
24547;SDS011;12713;51.624;4.924;2023-04-09T10:47:00;33.67;;;26.58;;
24547;SDS011;12713;51.624;4.924;2023-04-09T10:49:31;35.47;;;26.75;;
24547;SDS011;12713;51.624;4.924;2023-04-09T10:59:34;35.60;;;28.55;;
24547;SDS011;12713;51.624;4.924;2023-04-09T11:02:00;36.42;;;28.65;;
24547;SDS011;12713;51.624;4.924;2023-04-09T11:07:22;35.22;;;27.08;;
24547;SDS011;12713;51.624;4.924;2023-04-09T11:09:48;35.88;;;26.17;;
24547;SDS011;12713;51.624;4.924;2023-04-09T11:12:15;32.25;;;25.83;;
24547;SDS011;12713;51.624;4.924;2023-04-09T11:14:41;36.50;;;27.50;;
24547;SDS011;12713;51.624;4.924;2023-04-09T11:17:07;35.00;;;26.05;;
24547;SDS011;12713;51.624;4.924;2023-04-09T11:19:33;32.33;;;25.00;;
24547;SDS011;12713;51.624;4.924;2023-04-09T11:21:59;35.53;;;27.38;;
24547;SDS011;12713;51.624;4.924;2023-04-09T11:24:25;32.17;;;26.55;;
24547;SDS011;12713;51.624;4.924;2023-04-09T11:26:53;32.67;;;26.90;;
24547;SDS011;12713;51.624;4.924;2023-04-09T11:29:21;31.98;;;25.63;;
24547;SDS011;12713;51.624;4.924;2023-04-09T11:31:47;30.15;;;23.35;;
24547;SDS011;12713;51.624;4.924;2023-04-09T11:34:13;24.75;;;21.77;;
24547;SDS011;12713;51.624;4.924;2023-04-09T11:36:39;26.83;;;21.90;;
24547;SDS011;12713;51.624;4.924;2023-04-09T11:39:05;27.55;;;21.75;;
24547;SDS011;12713;51.624;4.924;2023-04-09T11:41:35;22.90;;;19.85;;
24547;SDS011;12713;51.624;4.924;2023-04-09T11:44:05;27.35;;;20.20;;
24547;SDS011;12713;51.624;4.924;2023-04-09T11:46:32;26.60;;;19.67;;
24547;SDS011;12713;51.624;4.924;2023-04-09T11:48:59;23.17;;;19.05;;
24547;SDS011;12713;51.624;4.924;2023-04-09T11:51:26;26.70;;;19.00;;
24547;SDS011;12713;51.624;4.924;2023-04-09T11:53:52;25.52;;;19.00;;
24547;SDS011;12713;51.624;4.924;2023-04-09T11:56:18;22.67;;;18.27;;
24547;SDS011;12713;51.624;4.924;2023-04-09T11:58:45;21.23;;;17.70;;
24547;SDS011;12713;51.624;4.924;2023-04-09T12:01:11;23.45;;;18.42;;
24547;SDS011;12713;51.624;4.924;2023-04-09T12:03:37;21.63;;;17.23;;
24547;SDS011;12713;51.624;4.924;2023-04-09T12:06:04;24.42;;;18.90;;
24547;SDS011;12713;51.624;4.924;2023-04-09T12:08:32;25.38;;;20.20;;
24547;SDS011;12713;51.624;4.924;2023-04-09T12:11:09;23.52;;;18.50;;
24547;SDS011;12713;51.624;4.924;2023-04-09T12:13:36;25.70;;;19.88;;
24547;SDS011;12713;51.624;4.924;2023-04-09T12:16:07;21.35;;;17.55;;
24547;SDS011;12713;51.624;4.924;2023-04-09T12:18:37;22.75;;;18.15;;
24547;SDS011;12713;51.624;4.924;2023-04-09T12:21:03;20.02;;;17.02;;
24547;SDS011;12713;51.624;4.924;2023-04-09T12:23:30;23.73;;;17.25;;
24547;SDS011;12713;51.624;4.924;2023-04-09T12:25:56;21.52;;;17.73;;
24547;SDS011;12713;51.624;4.924;2023-04-09T12:28:26;20.08;;;15.77;;
24547;SDS011;12713;51.624;4.924;2023-04-09T12:30:52;19.98;;;16.67;;
24547;SDS011;12713;51.624;4.924;2023-04-09T12:33:19;20.27;;;17.13;;
24547;SDS011;12713;51.624;4.924;2023-04-09T12:35:45;17.75;;;15.85;;
24547;SDS011;12713;51.624;4.924;2023-04-09T12:38:11;19.10;;;16.45;;
24547;SDS011;12713;51.624;4.924;2023-04-09T12:40:38;20.17;;;16.63;;
24547;SDS011;12713;51.624;4.924;2023-04-09T12:43:04;19.85;;;15.52;;
24547;SDS011;12713;51.624;4.924;2023-04-09T12:45:31;19.08;;;15.80;;
24547;SDS011;12713;51.624;4.924;2023-04-09T12:47:57;16.23;;;14.27;;
24547;SDS011;12713;51.624;4.924;2023-04-09T12:50:23;21.10;;;16.92;;
24547;SDS011;12713;51.624;4.924;2023-04-09T12:52:49;18.88;;;16.05;;
24547;SDS011;12713;51.624;4.924;2023-04-09T12:55:15;20.38;;;17.40;;
24547;SDS011;12713;51.624;4.924;2023-04-09T12:57:42;18.25;;;16.30;;
24547;SDS011;12713;51.624;4.924;2023-04-09T13:00:09;21.55;;;16.67;;
24547;SDS011;12713;51.624;4.924;2023-04-09T13:02:35;18.33;;;16.27;;
24547;SDS011;12713;51.624;4.924;2023-04-09T13:05:01;19.92;;;16.45;;
24547;SDS011;12713;51.624;4.924;2023-04-09T13:07:28;16.70;;;14.48;;
24547;SDS011;12713;51.624;4.924;2023-04-09T13:09:55;17.80;;;15.15;;
24547;SDS011;12713;51.624;4.924;2023-04-09T13:12:21;18.25;;;14.70;;
24547;SDS011;12713;51.624;4.924;2023-04-09T13:14:47;17.70;;;14.75;;
24547;SDS011;12713;51.624;4.924;2023-04-09T13:17:14;16.15;;;13.18;;
24547;SDS011;12713;51.624;4.924;2023-04-09T13:19:40;15.95;;;14.20;;
24547;SDS011;12713;51.624;4.924;2023-04-09T13:22:06;18.10;;;13.35;;
24547;SDS011;12713;51.624;4.924;2023-04-09T13:24:36;18.58;;;14.38;;
24547;SDS011;12713;51.624;4.924;2023-04-09T13:27:03;18.73;;;15.48;;
24547;SDS011;12713;51.624;4.924;2023-04-09T13:29:29;17.33;;;13.23;;
24547;SDS011;12713;51.624;4.924;2023-04-09T13:31:58;15.35;;;12.88;;
24547;SDS011;12713;51.624;4.924;2023-04-09T13:34:29;16.88;;;13.50;;
24547;SDS011;12713;51.624;4.924;2023-04-09T13:36:55;16.38;;;13.27;;
24547;SDS011;12713;51.624;4.924;2023-04-09T13:39:22;17.23;;;14.13;;
24547;SDS011;12713;51.624;4.924;2023-04-09T13:41:48;20.02;;;12.70;;
24547;SDS011;12713;51.624;4.924;2023-04-09T13:44:14;14.95;;;12.43;;
24547;SDS011;12713;51.624;4.924;2023-04-09T13:46:40;16.67;;;13.13;;
24547;SDS011;12713;51.624;4.924;2023-04-09T13:49:06;15.30;;;12.95;;
24547;SDS011;12713;51.624;4.924;2023-04-09T13:51:32;13.93;;;12.02;;
24547;SDS011;12713;51.624;4.924;2023-04-09T13:53:58;14.13;;;11.10;;
24547;SDS011;12713;51.624;4.924;2023-04-09T13:56:24;15.57;;;12.15;;
24547;SDS011;12713;51.624;4.924;2023-04-09T13:58:51;17.33;;;12.70;;
24547;SDS011;12713;51.624;4.924;2023-04-09T14:01:17;12.40;;;11.07;;
24547;SDS011;12713;51.624;4.924;2023-04-09T14:03:43;15.63;;;11.98;;
24547;SDS011;12713;51.624;4.924;2023-04-09T14:06:09;16.65;;;11.35;;
24547;SDS011;12713;51.624;4.924;2023-04-09T14:08:37;15.27;;;10.95;;
24547;SDS011;12713;51.624;4.924;2023-04-09T14:11:03;12.85;;;10.73;;
24547;SDS011;12713;51.624;4.924;2023-04-09T14:13:29;11.82;;;10.38;;
24547;SDS011;12713;51.624;4.924;2023-04-09T14:15:55;13.10;;;11.18;;
24547;SDS011;12713;51.624;4.924;2023-04-09T14:18:21;12.95;;;10.70;;
24547;SDS011;12713;51.624;4.924;2023-04-09T14:20:48;12.40;;;10.52;;
24547;SDS011;12713;51.624;4.924;2023-04-09T14:23:14;14.73;;;10.82;;
24547;SDS011;12713;51.624;4.924;2023-04-09T14:25:40;12.57;;;10.27;;
24547;SDS011;12713;51.624;4.924;2023-04-09T14:28:06;11.40;;;9.90;;
24547;SDS011;12713;51.624;4.924;2023-04-09T14:30:32;12.88;;;11.35;;
24547;SDS011;12713;51.624;4.924;2023-04-09T14:32:58;12.98;;;10.43;;
24547;SDS011;12713;51.624;4.924;2023-04-09T14:35:25;14.35;;;11.02;;
24547;SDS011;12713;51.624;4.924;2023-04-09T14:37:51;11.07;;;9.82;;